Time;durP1;ratioP1;P1;durP2;ratioP2;P2;SDS_P1;SDS_P2;PMS_P1;PMS_P2;Temp;Humidity;BMP_temperature;BMP_pressure;BME280_temperature;BME280_humidity;BME280_pressure;Samples;Min_cycle;Max_cycle;Signal;HPM_P1;HPM_P2
2022/04/08 00:01:00;;;;;;;1.83;1.20;;;;;;;5.99;79.11;94476.47;5090184;28;20434;-78
2022/04/08 00:03:28;;;;;;;2.63;1.20;;;;;;;6.18;79.02;94523.75;5105421;28;20425;-77
2022/04/08 00:05:55;;;;;;;5.70;1.30;;;;;;;6.23;77.25;94513.75;5087311;28;20461;-78
2022/04/08 00:08:22;;;;;;;2.90;1.30;;;;;;;5.98;76.65;94486.22;5089647;28;20433;-78
2022/04/08 00:10:48;;;;;;;2.13;1.93;;;;;;;5.83;76.63;94398.56;5086393;28;20469;-78
2022/04/08 00:13:17;;;;;;;3.90;1.37;;;;;;;6.28;76.10;94533.72;5108777;28;20884;-78
2022/04/08 00:15:44;;;;;;;2.50;0.97;;;;;;;6.06;76.14;94498.38;5109556;28;20819;-77
2022/04/08 00:18:11;;;;;;;3.23;1.20;;;;;;;5.89;77.21;94486.38;5101413;28;20459;-77
2022/04/08 00:20:38;;;;;;;4.10;1.97;;;;;;;5.58;76.82;94454.94;5104085;28;20447;-78
2022/04/08 00:23:05;;;;;;;1.57;1.00;;;;;;;6.20;75.94;94534.66;5102185;28;20461;-78
2022/04/08 00:25:31;;;;;;;4.07;1.30;;;;;;;5.82;77.33;94499.31;5085727;28;20495;-78
2022/04/08 00:27:58;;;;;;;4.07;1.67;;;;;;;5.76;77.58;94498.06;5103330;28;20467;-78
2022/04/08 00:30:25;;;;;;;2.10;1.73;;;;;;;5.83;77.39;94513.94;5080088;28;20974;-78
2022/04/08 00:32:51;;;;;;;1.33;1.03;;;;;;;6.03;78.05;94543.66;5096760;28;20445;-78
2022/04/08 00:35:18;;;;;;;3.63;1.53;;;;;;;5.99;76.97;94539.41;5078858;28;20434;-78
2022/04/08 00:37:45;;;;;;;5.87;1.73;;;;;;;5.96;77.27;94548.72;5095117;28;20453;-78
2022/04/08 00:40:12;;;;;;;2.90;2.00;;;;;;;5.53;76.38;94474.31;5093206;28;20437;-78
2022/04/08 00:42:40;;;;;;;7.23;1.20;;;;;;;5.61;76.74;94462.16;5077649;28;20471;-78
2022/04/08 00:45:07;;;;;;;2.07;0.80;;;;;;;5.95;76.50;94549.06;5078288;28;20471;-78
2022/04/08 00:47:36;;;;;;;4.03;1.40;;;;;;;5.62;77.19;94500.38;5094984;28;20449;-78
2022/04/08 00:50:04;;;;;;;11.50;2.80;;;;;;;5.70;77.86;94528.25;5076680;28;20968;-78
2022/04/08 00:52:33;;;;;;;4.20;1.77;;;;;;;5.71;78.55;94545.50;5077679;28;21015;-78
2022/04/08 00:55:05;;;;;;;6.70;1.70;;;;;;;5.95;78.63;94575.31;5078184;28;20442;-78
2022/04/08 00:57:32;;;;;;;5.07;1.50;;;;;;;5.90;79.32;94574.47;5096098;28;20481;-78
2022/04/08 01:00:05;;;;;;;2.23;1.00;;;;;;;5.78;78.69;94568.53;5095879;28;20530;-78
2022/04/08 01:02:32;;;;;;;2.80;1.47;;;;;;;5.89;78.96;94586.03;5095491;28;20445;-78
2022/04/08 01:04:59;;;;;;;12.73;1.73;;;;;;;5.92;78.25;94584.63;5095871;28;20435;-78
2022/04/08 01:07:26;;;;;;;3.63;1.30;;;;;;;5.91;78.31;94593.59;5065100;28;20457;-78
2022/04/08 01:09:54;;;;;;;5.07;1.23;;;;;;;5.69;78.63;94571.28;5096058;28;20468;-78
2022/04/08 01:12:21;;;;;;;4.00;1.23;;;;;;;5.77;79.44;94578.25;5077699;28;20828;-78
2022/04/08 01:14:47;;;;;;;2.67;1.20;;;;;;;5.51;80.25;94570.88;5105731;28;20977;-78
2022/04/08 01:17:14;;;;;;;3.80;1.07;;;;;;;5.73;77.87;94571.38;5094372;28;20499;-78
2022/04/08 01:19:41;;;;;;;3.47;1.23;;;;;;;5.51;78.44;94562.25;5061240;28;20934;-78
2022/04/08 01:22:07;;;;;;;12.67;2.10;;;;;;;5.51;79.41;94577.97;5074115;28;20808;-78
2022/04/08 01:24:36;;;;;;;2.10;1.30;;;;;;;5.83;78.83;94618.06;5093854;28;20719;-77
2022/04/08 01:27:03;;;;;;;2.30;1.53;;;;;;;5.60;79.39;94594.28;5094003;28;20806;-77
2022/04/08 01:29:29;;;;;;;3.30;1.23;;;;;;;5.49;79.84;94578.31;5076760;28;20461;-78
2022/04/08 01:31:56;;;;;;;2.00;1.40;;;;;;;5.76;80.09;94621.28;5094508;28;20516;-78
2022/04/08 01:34:23;;;;;;;2.20;1.57;;;;;;;5.71;80.22;94620.75;5093569;28;20421;-78
2022/04/08 01:36:50;;;;;;;6.87;1.43;;;;;;;5.77;79.41;94635.16;5094256;28;20452;-77
2022/04/08 01:39:16;;;;;;;3.13;1.40;;;;;;;5.67;80.45;94617.31;5093663;28;20433;-78
2022/04/08 01:41:43;;;;;;;2.27;1.30;;;;;;;5.55;80.53;94607.66;5076574;28;20899;-77
2022/04/08 01:44:10;;;;;;;4.63;1.13;;;;;;;5.46;80.86;94614.88;5094211;28;20426;-78
2022/04/08 01:46:37;;;;;;;6.40;1.40;;;;;;;5.59;80.85;94645.19;5093747;28;20456;-77
2022/04/08 01:49:04;;;;;;;4.03;1.60;;;;;;;5.67;80.37;94625.94;5094141;28;20425;-78
2022/04/08 01:51:31;;;;;;;3.63;1.53;;;;;;;5.47;79.97;94601.44;5079781;28;20553;-77
2022/04/08 01:53:57;;;;;;;5.73;1.50;;;;;;;5.73;79.57;94648.16;5098245;28;20433;-78
2022/04/08 01:56:24;;;;;;;1.50;1.00;;;;;;;5.54;79.70;94633.09;5095066;28;20863;-76
2022/04/08 01:58:51;;;;;;;2.33;1.30;;;;;;;5.66;80.72;94645.38;5096501;28;20425;-76
2022/04/08 02:01:17;;;;;;;7.43;1.70;;;;;;;5.39;81.32;94612.09;5095049;28;20547;-76
2022/04/08 02:03:44;;;;;;;7.17;1.60;;;;;;;5.38;81.57;94621.06;5094980;28;20436;-76
2022/04/08 02:06:11;;;;;;;3.33;1.40;;;;;;;5.56;81.55;94649.25;5092170;28;20483;-76
2022/04/08 02:08:39;;;;;;;4.47;1.40;;;;;;;5.49;81.62;94651.69;5091408;28;20446;-77
2022/04/08 02:11:05;;;;;;;3.33;1.40;;;;;;;5.40;81.17;94630.09;5073212;28;20469;-76
2022/04/08 02:13:33;;;;;;;2.50;1.30;;;;;;;5.07;81.82;94596.28;5084833;28;20450;-76
2022/04/08 02:16:00;;;;;;;1.77;1.07;;;;;;;5.46;81.93;94644.47;5099757;28;20445;-76
2022/04/08 02:18:26;;;;;;;5.50;1.47;;;;;;;5.24;82.11;94630.06;5094693;28;20451;-76
2022/04/08 02:20:53;;;;;;;2.63;1.20;;;;;;;5.28;81.03;94620.44;5094893;28;20433;-77
2022/04/08 02:23:20;;;;;;;3.53;1.20;;;;;;;5.37;81.01;94638.63;5096115;28;20432;-77
2022/04/08 02:25:47;;;;;;;2.83;1.30;;;;;;;5.21;81.67;94611.63;5095592;28;20869;-77
2022/04/08 02:28:14;;;;;;;7.13;2.30;;;;;;;5.13;81.27;94610.66;5073984;28;20434;-77
2022/04/08 02:30:40;;;;;;;7.70;1.90;;;;;;;5.43;81.76;94668.72;5074037;28;20488;-77
2022/04/08 02:33:07;;;;;;;3.17;1.63;;;;;;;5.15;81.76;94636.53;5077281;28;20468;-77
2022/04/08 02:35:34;;;;;;;4.40;1.17;;;;;;;5.21;81.93;94635.97;5094231;28;20445;-77
2022/04/08 02:38:01;;;;;;;5.43;1.80;;;;;;;5.17;82.44;94652.66;5094371;28;20536;-77
2022/04/08 02:40:27;;;;;;;1.50;1.10;;;;;;;5.21;81.84;94659.56;5094100;28;20432;-77
2022/04/08 02:42:54;;;;;;;5.03;1.57;;;;;;;5.08;83.52;94654.69;5077211;28;20956;-77
2022/04/08 02:45:21;;;;;;;6.00;1.63;;;;;;;5.12;82.29;94658.16;5094207;28;20425;-77
2022/04/08 02:47:47;;;;;;;5.17;1.70;;;;;;;5.17;81.46;94665.75;5094043;28;20537;-77
2022/04/08 02:50:14;;;;;;;3.50;1.07;;;;;;;5.18;82.22;94681.16;5093843;28;20476;-77
2022/04/08 02:52:41;;;;;;;4.13;1.30;;;;;;;5.19;83.13;94697.63;5095073;28;20945;-77
2022/04/08 02:55:08;;;;;;;4.70;1.90;;;;;;;5.14;82.34;94690.00;5076775;28;20952;-77
2022/04/08 02:57:46;;;;;;;3.20;1.50;;;;;;;5.25;82.27;94712.78;5093928;28;20450;-77
2022/04/08 03:00:15;;;;;;;7.10;2.07;;;;;;;5.13;82.76;94685.88;5093346;28;20483;-77
2022/04/08 03:02:43;;;;;;;2.13;1.40;;;;;;;5.24;82.20;94710.50;5063231;28;20442;-77
2022/04/08 03:05:10;;;;;;;2.67;2.30;;;;;;;5.23;82.10;94711.59;5076837;28;20459;-77
2022/04/08 03:07:37;;;;;;;4.47;1.30;;;;;;;4.93;82.58;94661.34;5076655;28;20499;-77
2022/04/08 03:10:07;;;;;;;1.77;0.97;;;;;;;5.27;81.15;94707.22;5069328;28;20473;-77
2022/04/08 03:12:34;;;;;;;0.80;0.80;;;;;;;5.24;81.07;94719.13;5089285;28;20444;-77
2022/04/08 03:15:03;;;;;;;5.13;1.60;;;;;;;5.20;82.52;94718.25;5104970;28;20952;-77
2022/04/08 03:17:30;;;;;;;3.87;3.03;;;;;;;4.93;82.32;94672.59;5093669;28;20494;-77
2022/04/08 03:19:57;;;;;;;3.23;1.17;;;;;;;5.16;82.23;94737.59;5098878;28;20463;-77
2022/04/08 03:22:24;;;;;;;4.33;2.00;;;;;;;4.90;82.78;94703.91;5095776;28;20940;-77
2022/04/08 03:24:51;;;;;;;4.83;1.87;;;;;;;4.98;83.28;94723.97;5094515;28;20433;-77
2022/04/08 03:27:18;;;;;;;6.73;1.40;;;;;;;3.97;83.37;94572.16;5093027;28;20464;-77
2022/04/08 03:29:45;;;;;;;1.87;1.70;;;;;;;4.88;83.44;94711.34;5076297;28;20956;-77
2022/04/08 03:32:11;;;;;;;5.60;1.50;;;;;;;4.67;83.73;94696.53;5094420;28;20474;-77
2022/04/08 03:34:38;;;;;;;3.17;1.70;;;;;;;4.96;84.43;94732.16;5076522;28;20924;-77
2022/04/08 03:37:05;;;;;;;8.93;3.40;;;;;;;4.97;84.48;94749.41;5075612;28;20458;-77
2022/04/08 03:39:32;;;;;;;3.67;1.43;;;;;;;5.04;84.81;94754.06;5076461;28;20486;-77
2022/04/08 03:42:00;;;;;;;3.67;1.03;;;;;;;4.82;84.72;94723.13;5093238;28;20446;-77
2022/04/08 03:44:26;;;;;;;3.30;1.23;;;;;;;4.71;85.72;94709.72;5092786;28;20443;-77
2022/04/08 03:46:53;;;;;;;5.43;1.47;;;;;;;4.96;86.40;94749.75;5092582;28;20614;-77
2022/04/08 03:49:21;;;;;;;6.10;3.70;;;;;;;4.97;86.55;94757.25;5094254;28;20425;-77
2022/04/08 03:51:48;;;;;;;2.83;1.50;;;;;;;4.81;86.69;94742.53;5094263;28;20525;-77
2022/04/08 03:54:18;;;;;;;5.67;2.57;;;;;;;4.92;87.08;94744.38;5093944;28;20425;-77
2022/04/08 03:56:45;;;;;;;2.40;1.10;;;;;;;4.42;86.65;94674.84;5092924;28;20448;-77
2022/04/08 03:59:12;;;;;;;3.87;1.30;;;;;;;4.98;87.89;94771.13;5076929;28;20491;-77
2022/04/08 04:01:38;;;;;;;5.23;1.50;;;;;;;4.94;88.51;94771.00;5094001;28;20786;-77
2022/04/08 04:04:05;;;;;;;3.23;1.60;;;;;;;4.83;88.97;94759.44;5075695;28;20432;-77
2022/04/08 04:06:32;;;;;;;8.17;1.73;;;;;;;4.57;89.71;94736.22;5070368;28;20446;-77
2022/04/08 04:08:59;;;;;;;3.07;2.50;;;;;;;4.35;89.81;94705.22;5086138;28;20454;-77
2022/04/08 04:11:26;;;;;;;2.97;1.80;;;;;;;4.62;90.19;94749.06;5094569;28;20460;-77
2022/04/08 04:13:52;;;;;;;2.60;1.40;;;;;;;4.69;91.14;94749.31;5102454;28;20449;-77
2022/04/08 04:16:19;;;;;;;3.70;1.50;;;;;;;4.70;91.29;94756.06;5095681;28;20861;-77
2022/04/08 04:18:46;;;;;;;2.90;1.50;;;;;;;4.46;91.76;94727.25;5093956;28;20445;-77
2022/04/08 04:21:13;;;;;;;4.20;1.20;;;;;;;4.66;91.91;94749.94;5093186;28;20444;-75
2022/04/08 04:23:39;;;;;;;2.97;1.27;;;;;;;4.21;92.41;94702.16;5093619;28;20429;-77
2022/04/08 04:26:06;;;;;;;5.07;1.80;;;;;;;4.80;93.06;94794.13;5094397;28;20488;-76
2022/04/08 04:28:33;;;;;;;8.80;2.90;;;;;;;4.53;93.33;94760.72;5094644;28;20425;-76
2022/04/08 04:31:01;;;;;;;4.63;2.00;;;;;;;4.52;93.25;94770.44;5077076;28;20458;-76
2022/04/08 04:33:28;;;;;;;3.73;1.70;;;;;;;4.76;93.53;94798.47;5081400;28;20958;-73
2022/04/08 04:35:55;;;;;;;5.37;1.87;;;;;;;4.73;94.58;94801.75;5096524;28;20981;-74
2022/04/08 04:38:23;;;;;;;7.77;2.10;;;;;;;4.64;93.81;94795.84;5092166;28;20930;-74
2022/04/08 04:40:50;;;;;;;7.43;1.47;;;;;;;4.67;94.39;94793.38;5091648;28;20461;-75
2022/04/08 04:43:16;;;;;;;9.37;1.47;;;;;;;4.63;95.90;94810.78;5091402;28;21021;-75
2022/04/08 04:45:43;;;;;;;5.10;2.73;;;;;;;4.66;96.24;94812.00;5091177;28;20428;-74
2022/04/08 04:48:11;;;;;;;3.10;1.40;;;;;;;4.56;95.89;94799.34;5093139;28;20937;-74
2022/04/08 04:50:39;;;;;;;5.30;2.10;;;;;;;4.56;95.91;94805.34;5092768;28;20452;-75
2022/04/08 04:53:06;;;;;;;5.73;1.50;;;;;;;4.68;96.17;94831.53;5091618;28;20429;-74
2022/04/08 04:55:33;;;;;;;6.93;1.63;;;;;;;4.50;96.09;94805.88;5091953;28;20502;-75
2022/04/08 04:58:00;;;;;;;2.80;2.00;;;;;;;4.37;96.64;94790.13;5091366;28;20425;-74
2022/04/08 05:00:26;;;;;;;4.30;2.30;;;;;;;4.36;97.01;94782.63;5090951;28;20425;-74
2022/04/08 05:02:53;;;;;;;5.60;1.90;;;;;;;4.66;96.82;94841.53;5072902;28;20448;-74
2022/04/08 05:05:20;;;;;;;4.00;2.00;;;;;;;4.49;97.64;94828.66;5073874;28;20444;-74
2022/04/08 05:07:47;;;;;;;3.40;2.00;;;;;;;4.60;97.69;94852.56;5073830;28;20453;-74
2022/04/08 05:10:13;;;;;;;1.77;1.67;;;;;;;4.45;97.95;94830.41;5090548;28;20479;-74
2022/04/08 05:12:40;;;;;;;9.77;1.83;;;;;;;4.64;98.56;94861.28;5074056;28;20488;-74
2022/04/08 05:15:09;;;;;;;2.80;2.00;;;;;;;4.62;98.48;94863.47;5103478;28;20425;-74
2022/04/08 05:17:36;;;;;;;3.00;1.37;;;;;;;4.45;98.49;94840.88;5090708;28;20450;-74
2022/04/08 05:20:04;;;;;;;4.70;2.00;;;;;;;4.67;99.02;94884.97;5090634;28;20866;-74
2022/04/08 05:22:31;;;;;;;4.30;1.80;;;;;;;4.69;98.69;94876.81;5090473;28;20499;-74
2022/04/08 05:24:59;;;;;;;4.27;1.47;;;;;;;4.67;98.05;94869.28;5091901;28;20456;-74
2022/04/08 05:27:27;;;;;;;4.47;2.07;;;;;;;4.83;98.63;94882.50;5106771;28;20536;-75
2022/04/08 05:30:12;;;;;;;4.30;2.00;;;;;;;4.83;97.89;94877.25;5092419;28;20501;-75
2022/04/08 05:32:39;;;;;;;8.20;1.90;;;;;;;4.80;98.29;94869.28;5090426;28;20429;-75
2022/04/08 05:35:06;;;;;;;3.73;1.60;;;;;;;5.03;97.74;94899.22;5090509;28;20422;-73
2022/04/08 05:37:45;;;;;;;7.13;2.97;;;;;;;4.85;97.85;94874.31;5090580;28;20514;-73
2022/04/08 05:40:16;;;;;;;6.77;2.80;;;;;;;5.00;99.76;94898.00;5097485;28;20425;-76
2022/04/08 05:42:45;;;;;;;2.43;1.80;;;;;;;5.13;97.59;94900.66;5092973;28;20441;-75
2022/04/08 05:45:14;;;;;;;8.00;3.30;;;;;;;5.05;98.10;94868.97;5074686;28;20445;-75
2022/04/08 05:47:41;;;;;;;4.33;1.83;;;;;;;5.30;97.24;94890.72;5091624;28;20449;-75
2022/04/08 05:50:08;;;;;;;2.93;1.63;;;;;;;5.52;97.21;94907.09;5091352;28;20433;-76
2022/04/08 05:52:35;;;;;;;5.30;1.50;;;;;;;5.45;96.57;94917.34;5091017;28;20993;-75
2022/04/08 05:55:02;;;;;;;3.50;1.43;;;;;;;5.22;96.56;94891.59;5091623;28;20425;-72
2022/04/08 05:57:33;;;;;;;3.93;1.77;;;;;;;5.12;98.60;94876.31;5090229;28;20961;-72
2022/04/08 06:00:00;;;;;;;3.67;2.33;;;;;;;5.32;98.03;94900.88;5073990;28;21010;-73
2022/04/08 06:02:29;;;;;;;5.33;1.67;;;;;;;5.32;98.35;94898.25;5091299;28;20413;-72
2022/04/08 06:04:56;;;;;;;6.73;2.00;;;;;;;5.25;98.84;94908.53;5090490;28;20425;-72
2022/04/08 06:07:24;;;;;;;3.47;1.80;;;;;;;5.42;99.59;94928.50;5079367;28;21040;-74
2022/04/08 06:09:51;;;;;;;4.00;1.90;;;;;;;5.36;98.27;94893.13;5088993;28;20502;-74
2022/04/08 06:12:18;;;;;;;3.97;1.73;;;;;;;5.27;98.20;94896.63;5091610;28;20477;-74
2022/04/08 06:14:45;;;;;;;5.10;1.93;;;;;;;5.32;99.48;94903.50;5102200;28;20524;-74
2022/04/08 06:17:11;;;;;;;6.60;2.67;;;;;;;5.54;98.64;94920.66;5091911;28;20948;-75
2022/04/08 06:19:38;;;;;;;4.17;1.90;;;;;;;5.50;99.25;94922.41;5090967;28;20448;-74
2022/04/08 06:22:05;;;;;;;4.20;1.60;;;;;;;5.56;98.88;94921.84;5090676;28;20458;-75
2022/04/08 06:24:31;;;;;;;12.20;3.77;;;;;;;5.36;99.22;94922.72;5093154;28;20467;-72
2022/04/08 06:26:58;;;;;;;12.83;5.50;;;;;;;5.58;100.00;94942.47;5075129;28;20460;-72
2022/04/08 06:29:25;;;;;;;8.00;4.40;;;;;;;5.49;99.70;94905.16;5091704;28;20540;-72
2022/04/08 06:31:51;;;;;;;4.43;1.50;;;;;;;5.65;99.74;94940.09;5090558;28;20555;-74
2022/04/08 06:34:19;;;;;;;6.37;2.30;;;;;;;5.61;100.00;94911.16;5092185;28;20434;-75
2022/04/08 06:36:45;;;;;;;4.07;1.93;;;;;;;5.71;99.67;94925.66;5091940;28;21118;-75
2022/04/08 06:39:12;;;;;;;7.07;2.33;;;;;;;5.80;99.66;94942.03;5093945;28;20425;-75
2022/04/08 06:41:39;;;;;;;5.10;2.13;;;;;;;5.59;100.00;94904.69;5093513;28;20444;-75
2022/04/08 06:44:06;;;;;;;9.93;2.03;;;;;;;5.58;100.00;94947.72;5094277;28;20421;-74
2022/04/08 06:46:33;;;;;;;4.50;2.37;;;;;;;5.74;100.00;94956.44;5094811;28;20540;-74
2022/04/08 06:49:02;;;;;;;3.50;1.80;;;;;;;5.62;100.00;94930.25;5093470;28;20506;-74
2022/04/08 06:51:30;;;;;;;4.50;1.83;;;;;;;5.76;100.00;94940.41;5093443;28;20485;-75
2022/04/08 06:53:57;;;;;;;3.53;1.77;;;;;;;5.92;100.00;94957.81;5094379;28;20425;-73
2022/04/08 06:56:24;;;;;;;4.80;2.40;;;;;;;5.65;100.00;94924.34;5092853;28;20528;-72
2022/04/08 06:58:50;;;;;;;4.10;2.27;;;;;;;5.60;100.00;94932.44;5075985;28;20498;-72
2022/04/08 07:01:17;;;;;;;2.40;1.67;;;;;;;5.86;100.00;94937.31;5092333;28;20445;-72
2022/04/08 07:03:44;;;;;;;5.30;2.53;;;;;;;5.75;100.00;94936.28;5075742;28;20486;-72
2022/04/08 07:06:10;;;;;;;9.57;2.60;;;;;;;5.97;100.00;94948.16;5089876;28;20564;-72
2022/04/08 07:08:37;;;;;;;16.13;2.53;;;;;;;6.16;99.38;94949.13;5082628;28;20531;-72
2022/04/08 07:11:04;;;;;;;6.97;2.73;;;;;;;6.19;97.87;94940.59;5092291;28;20961;-76
2022/04/08 07:13:30;;;;;;;4.60;2.50;;;;;;;6.44;97.35;94943.16;5099238;28;20443;-76
2022/04/08 07:15:57;;;;;;;3.43;1.67;;;;;;;6.11;97.11;94907.38;5095799;28;20492;-75
2022/04/08 07:18:24;;;;;;;3.77;1.53;;;;;;;6.48;96.23;94952.66;5075346;28;20436;-76
2022/04/08 07:20:50;;;;;;;6.17;2.20;;;;;;;6.51;96.72;94930.22;5093316;28;20457;-76
2022/04/08 07:23:17;;;;;;;2.40;2.20;;;;;;;6.21;97.24;94911.38;5092071;28;20759;-76
2022/04/08 07:25:44;;;;;;;7.03;2.53;;;;;;;6.25;99.04;94933.25;5091986;28;20528;-76
2022/04/08 07:28:10;;;;;;;9.00;3.17;;;;;;;6.32;98.72;94951.81;5072021;28;20529;-76
2022/04/08 07:30:37;;;;;;;7.77;1.70;;;;;;;6.14;99.49;94934.78;5071988;28;20469;-76
2022/04/08 07:33:04;;;;;;;4.87;1.77;;;;;;;6.17;97.83;94931.53;5083470;28;20461;-74
2022/04/08 07:35:33;;;;;;;3.50;1.83;;;;;;;6.19;98.28;94961.59;5093097;28;20433;-75
2022/04/08 07:38:00;;;;;;;2.50;2.30;;;;;;;6.05;98.38;94963.78;5091889;28;20429;-75
2022/04/08 07:40:27;;;;;;;6.47;2.23;;;;;;;6.04;98.95;94958.88;5091704;28;20521;-75
2022/04/08 07:42:54;;;;;;;3.90;2.00;;;;;;;5.91;100.00;94939.78;5093254;28;20429;-75
2022/04/08 07:45:24;;;;;;;2.80;1.67;;;;;;;6.17;100.00;94948.03;5091632;28;20472;-76
2022/04/08 07:47:51;;;;;;;6.43;2.37;;;;;;;6.35;100.00;94930.16;5091699;28;20421;-73
2022/04/08 07:50:18;;;;;;;7.80;1.90;;;;;;;6.40;98.09;94922.03;5091618;28;20537;-74
2022/04/08 07:52:44;;;;;;;3.50;2.53;;;;;;;6.21;98.73;94896.41;5092812;28;20541;-76
2022/04/08 07:55:11;;;;;;;7.07;2.87;;;;;;;6.33;100.00;94916.59;5091336;28;20477;-75
2022/04/08 07:57:50;;;;;;;8.07;2.23;;;;;;;6.57;100.00;94920.25;5091402;28;20481;-76
2022/04/08 08:00:27;;;;;;;5.27;2.20;;;;;;;6.99;97.12;94916.09;5091441;28;20867;-76
2022/04/08 08:02:55;;;;;;;5.53;2.30;;;;;;;7.37;92.58;94920.00;5091523;28;20861;-75
2022/04/08 08:05:22;;;;;;;2.80;1.67;;;;;;;7.02;92.01;94901.50;5091277;28;20440;-75
2022/04/08 08:07:57;;;;;;;5.17;2.50;;;;;;;7.37;92.82;94933.16;5091139;28;20459;-76
2022/04/08 08:10:25;;;;;;;3.73;2.50;;;;;;;7.24;94.40;94932.47;5071082;28;20871;-75
2022/04/08 08:12:53;;;;;;;3.83;1.83;;;;;;;7.14;91.13;94927.72;5092588;28;20469;-75
2022/04/08 08:15:21;;;;;;;2.07;1.57;;;;;;;6.84;92.20;94929.22;5100032;28;20454;-76
2022/04/08 08:17:49;;;;;;;7.73;2.17;;;;;;;6.79;94.59;94896.06;5090749;28;20468;-75
2022/04/08 08:20:18;;;;;;;5.47;2.20;;;;;;;6.98;92.07;94919.81;5091075;28;20425;-75
2022/04/08 08:22:45;;;;;;;6.20;1.90;;;;;;;7.02;94.31;94914.66;5090944;28;20968;-75
2022/04/08 08:25:13;;;;;;;3.57;1.83;;;;;;;6.90;90.94;94917.34;5074026;28;20926;-76
2022/04/08 08:27:42;;;;;;;3.97;1.90;;;;;;;7.02;91.57;94914.66;5092310;28;20473;-76
2022/04/08 08:30:11;;;;;;;3.60;1.57;;;;;;;7.20;90.40;94922.97;5090901;28;20469;-76
2022/04/08 08:32:39;;;;;;;2.83;2.17;;;;;;;7.31;90.33;94911.59;5074108;28;20531;-76
2022/04/08 08:35:10;;;;;;;4.20;1.40;;;;;;;7.48;90.14;94901.84;5090740;28;20446;-75
2022/04/08 08:37:37;;;;;;;3.57;1.97;;;;;;;7.44;87.22;94906.25;5077561;28;20458;-76
2022/04/08 08:40:06;;;;;;;6.13;1.60;;;;;;;7.67;88.00;94909.81;5090629;28;20469;-76
2022/04/08 08:42:36;;;;;;;5.87;1.80;;;;;;;7.76;87.95;94917.53;5090799;28;20516;-75
2022/04/08 08:45:03;;;;;;;6.60;3.30;;;;;;;7.76;87.43;94897.22;5090300;28;20858;-75
2022/04/08 08:47:31;;;;;;;5.67;2.47;;;;;;;8.03;86.87;94910.59;5090421;28;20465;-75
2022/04/08 08:49:57;;;;;;;4.63;2.60;;;;;;;7.85;83.30;94921.47;5090409;28;20479;-75
2022/04/08 08:52:25;;;;;;;5.67;2.97;;;;;;;7.44;83.86;94901.00;5073731;28;20458;-75
2022/04/08 08:54:52;;;;;;;3.30;1.57;;;;;;;7.83;85.60;94920.28;5073537;28;20460;-75
2022/04/08 08:57:20;;;;;;;7.70;3.00;;;;;;;7.93;81.93;94915.25;5073468;28;20500;-76
2022/04/08 08:59:47;;;;;;;7.70;2.57;;;;;;;7.78;82.70;94889.00;5090118;28;20525;-75
2022/04/08 09:02:20;;;;;;;5.77;2.40;;;;;;;7.83;83.58;94915.03;5073649;28;20889;-75
2022/04/08 09:04:47;;;;;;;7.33;3.07;;;;;;;7.71;82.99;94911.41;5091807;28;20483;-76
2022/04/08 09:07:24;;;;;;;8.00;2.50;;;;;;;7.65;82.71;94894.38;5090133;28;20491;-75
2022/04/08 09:09:53;;;;;;;2.13;1.90;;;;;;;7.68;81.33;94912.09;5090139;28;20470;-75
2022/04/08 09:12:22;;;;;;;6.17;2.30;;;;;;;7.65;79.09;94897.00;5091241;28;20465;-76
2022/04/08 09:14:50;;;;;;;4.87;1.30;;;;;;;7.55;80.72;94900.16;5073369;28;20455;-75
2022/04/08 09:17:18;;;;;;;8.43;2.13;;;;;;;7.47;79.98;94900.31;5090187;28;20469;-74
2022/04/08 09:19:49;;;;;;;3.30;1.37;;;;;;;7.54;80.25;94892.59;5073525;28;20435;-74
2022/04/08 09:22:17;;;;;;;4.03;1.40;;;;;;;7.50;81.32;94886.50;5084280;28;21113;-74
2022/04/08 09:24:44;;;;;;;4.77;2.00;;;;;;;7.74;81.42;94904.69;5090238;28;20978;-75
2022/04/08 09:27:11;;;;;;;3.97;1.73;;;;;;;7.67;80.89;94897.41;5090014;28;20502;-75
2022/04/08 09:29:43;;;;;;;4.90;3.03;;;;;;;7.66;80.22;94897.75;5073323;28;20445;-75
2022/04/08 09:32:29;;;;;;;3.63;1.80;;;;;;;7.57;81.47;94897.94;5074716;28;20525;-75
2022/04/08 09:34:57;;;;;;;3.60;2.30;;;;;;;7.56;81.65;94895.66;5073349;28;20533;-75
2022/04/08 09:37:24;;;;;;;4.93;2.00;;;;;;;7.37;80.63;94867.44;5089882;28;20466;-76
2022/04/08 09:39:59;;;;;;;3.50;1.47;;;;;;;7.57;79.98;94894.53;5089915;28;20438;-76
2022/04/08 09:42:43;;;;;;;20.23;1.80;;;;;;;7.61;78.77;94887.47;5090049;28;20468;-75
2022/04/08 09:45:11;;;;;;;8.67;2.07;;;;;;;7.65;79.80;94886.47;5073211;28;20445;-75
2022/04/08 09:47:38;;;;;;;6.90;1.90;;;;;;;7.40;79.41;94864.88;5069564;28;20462;-75
2022/04/08 09:50:08;;;;;;;2.40;1.43;;;;;;;7.26;77.92;94855.91;5089814;28;20481;-75
2022/04/08 09:52:39;;;;;;;5.00;1.13;;;;;;;7.46;77.81;94883.78;5073049;28;20461;-75
2022/04/08 09:55:07;;;;;;;11.37;4.00;;;;;;;7.48;78.56;94884.22;5072913;28;20465;-75
2022/04/08 09:57:37;;;;;;;7.00;2.40;;;;;;;7.52;79.10;94879.03;5089736;28;20874;-75
2022/04/08 10:00:06;;;;;;;1.83;1.30;;;;;;;7.26;78.44;94837.50;5089867;28;20983;-75
2022/04/08 10:02:35;;;;;;;4.03;1.63;;;;;;;7.54;79.10;94867.06;5090233;28;20428;-75
2022/04/08 10:05:08;;;;;;;6.53;1.90;;;;;;;7.52;79.11;94839.59;5070283;28;20467;-75
2022/04/08 10:07:36;;;;;;;6.83;2.00;;;;;;;7.56;77.81;94840.41;5083418;28;20446;-75
2022/04/08 10:10:19;;;;;;;1.63;1.20;;;;;;;7.69;77.66;94860.25;5089556;28;20494;-75
2022/04/08 10:13:15;;;;;;;5.07;1.80;;;;;;;7.47;78.02;94816.94;5092381;28;20519;-75
2022/04/08 10:15:44;;;;;;;6.30;1.47;;;;;;;7.76;77.18;94849.13;5099559;28;21072;-75
2022/04/08 10:18:11;;;;;;;3.23;1.87;;;;;;;7.62;75.35;94842.44;5093412;28;20444;-75
2022/04/08 10:20:38;;;;;;;1.97;1.40;;;;;;;7.60;74.48;94849.91;5093328;28;20433;-75
2022/04/08 10:23:10;;;;;;;2.10;1.63;;;;;;;7.71;75.17;94848.25;5073165;28;20467;-75
2022/04/08 10:25:39;;;;;;;3.07;1.40;;;;;;;7.71;75.07;94839.63;5090210;28;20966;-75
2022/04/08 10:28:11;;;;;;;2.60;1.50;;;;;;;7.45;75.33;94839.41;5093430;28;20448;-75
2022/04/08 10:30:46;;;;;;;4.93;2.30;;;;;;;7.58;74.94;94832.94;5093195;28;20447;-75
2022/04/08 10:33:23;;;;;;;15.13;2.30;;;;;;;7.51;76.74;94806.50;5076180;28;20457;-75
2022/04/08 10:35:55;;;;;;;8.70;2.23;;;;;;;7.77;76.92;94830.38;5076125;28;20564;-75
2022/04/08 10:38:22;;;;;;;5.47;2.27;;;;;;;7.70;77.47;94815.19;5076232;28;20495;-75
2022/04/08 10:40:55;;;;;;;6.43;2.23;;;;;;;7.80;76.48;94816.50;5094326;28;20917;-75
2022/04/08 10:43:23;;;;;;;3.67;2.03;;;;;;;7.79;76.21;94819.50;5093010;28;20413;-75
2022/04/08 10:45:57;;;;;;;4.03;1.87;;;;;;;7.72;77.59;94812.19;5092714;28;20887;-75
2022/04/08 10:48:33;;;;;;;1.87;1.40;;;;;;;7.57;76.47;94805.88;5092853;28;20421;-74
2022/04/08 10:51:05;;;;;;;1.77;1.20;;;;;;;7.60;77.31;94809.69;5094037;28;20813;-75
2022/04/08 10:53:33;;;;;;;4.10;2.13;;;;;;;7.06;82.38;94777.00;5075839;28;20471;-75
2022/04/08 10:56:13;;;;;;;7.70;2.50;;;;;;;7.07;85.39;94783.75;5092699;28;20465;-75
2022/04/08 10:58:44;;;;;;;8.10;2.33;;;;;;;7.39;86.40;94799.50;5094045;28;20495;-75
2022/04/08 11:01:23;;;;;;;2.40;1.47;;;;;;;7.38;82.97;94767.19;5092834;28;20495;-75
2022/04/08 11:04:00;;;;;;;5.53;1.63;;;;;;;7.42;83.40;94762.00;5092775;28;20812;-75
2022/04/08 11:06:32;;;;;;;5.27;1.67;;;;;;;7.06;81.64;94734.19;5092761;28;20465;-76
2022/04/08 11:09:08;;;;;;;2.90;1.27;;;;;;;7.46;81.32;94770.72;5092899;28;20536;-75
2022/04/08 11:11:37;;;;;;;7.27;1.43;;;;;;;7.21;82.08;94740.50;5093899;28;20423;-76
2022/04/08 11:14:05;;;;;;;4.97;2.57;;;;;;;7.21;82.41;94756.28;5104895;28;20495;-76
2022/04/08 11:16:34;;;;;;;5.70;2.60;;;;;;;7.12;83.39;94727.56;5075424;28;20501;-76
2022/04/08 11:19:06;;;;;;;3.50;2.07;;;;;;;6.89;92.55;94714.31;5075322;28;21095;-76
2022/04/08 11:21:34;;;;;;;5.00;2.00;;;;;;;6.79;100.00;94741.84;5092170;28;20512;-76
2022/04/08 11:24:03;;;;;;;6.93;1.97;;;;;;;6.63;100.00;94737.72;5091478;28;20441;-76
2022/04/08 11:26:31;;;;;;;2.20;1.90;;;;;;;6.34;100.00;94721.28;5092344;28;20450;-77
2022/04/08 11:29:10;;;;;;;7.50;3.00;;;;;;;6.04;100.00;94709.69;5092081;28;20698;-74
2022/04/08 11:31:40;;;;;;;5.90;2.03;;;;;;;5.83;100.00;94718.47;5091930;28;20445;-74
2022/04/08 11:34:07;;;;;;;3.07;1.70;;;;;;;5.57;100.00;94669.09;5074967;28;20486;-75
2022/04/08 11:36:35;;;;;;;6.30;1.90;;;;;;;5.73;100.00;94700.59;5091733;28;20500;-75
2022/04/08 11:39:04;;;;;;;10.53;2.00;;;;;;;5.78;100.00;94691.75;5074837;28;20445;-74
2022/04/08 11:41:34;;;;;;;2.50;2.10;;;;;;;5.88;100.00;94693.88;5091592;28;20441;-74
2022/04/08 11:44:03;;;;;;;4.70;1.90;;;;;;;5.82;100.00;94682.09;5091613;28;20949;-74
2022/04/08 11:46:30;;;;;;;8.40;1.80;;;;;;;5.92;100.00;94698.16;5074746;28;20460;-74